createdAt,value
2018-01-02T00:00:31.085Z,0
2018-01-02T00:02:30.857Z,0
2018-01-02T00:03:31.390Z,0
2018-01-02T00:04:30.884Z,0
2018-01-02T00:05:31.189Z,0
2018-01-02T00:06:31.161Z,0
2018-01-02T00:07:45.598Z,0
2018-01-02T00:08:45.631Z,0
2018-01-02T00:09:31.000Z,0
2018-01-02T00:10:31.237Z,0
2018-01-02T00:11:31.011Z,0
2018-01-02T00:12:31.543Z,0
2018-01-02T00:14:31.532Z,0
2018-01-02T00:15:45.990Z,0
2018-01-02T00:17:46.267Z,0
2018-01-02T00:18:31.359Z,0
2018-01-02T00:19:31.112Z,0
2018-01-02T00:20:46.331Z,0
2018-01-02T00:21:31.417Z,0
2018-01-02T00:22:31.706Z,0
2018-01-02T00:23:31.683Z,0
2018-01-02T00:24:31.713Z,0
2018-01-02T00:25:31.219Z,0
2018-01-02T00:26:31.777Z,0
2018-01-02T00:27:46.195Z,0
2018-01-02T00:28:31.774Z,0
2018-01-02T00:29:46.223Z,0
2018-01-02T00:30:31.564Z,0
2018-01-02T00:31:31.583Z,0
2018-01-02T00:32:31.600Z,0
2018-01-02T00:33:31.387Z,0
2018-01-02T00:34:46.308Z,0
2018-01-02T00:35:31.896Z,0
2018-01-02T00:36:31.636Z,0
2018-01-02T00:37:46.656Z,0
2018-01-02T00:38:31.934Z,0
2018-01-02T00:39:31.942Z,0
2018-01-02T00:40:46.646Z,0
2018-01-02T00:41:31.472Z,0
2018-01-02T00:42:31.729Z,0
2018-01-02T00:43:46.458Z,0
2018-01-02T00:44:31.525Z,0
2018-01-02T00:45:46.711Z,0
2018-01-02T00:46:31.833Z,0
2018-01-02T00:47:31.833Z,0
2018-01-02T00:48:32.095Z,0
2018-01-02T00:49:31.834Z,0
2018-01-02T00:50:31.880Z,0
2018-01-02T00:51:32.113Z,0
2018-01-02T00:52:46.565Z,0
2018-01-02T00:53:31.656Z,0
2018-01-02T00:54:32.227Z,0
2018-01-02T00:55:46.613Z,0
2018-01-02T00:56:46.640Z,0
2018-01-02T00:57:31.991Z,0
2018-01-02T00:58:31.736Z,0
2018-01-02T00:59:46.686Z,0
2018-01-02T01:00:32.339Z,0
2018-01-02T01:01:32.287Z,0
2018-01-02T01:02:32.299Z,0
2018-01-02T01:03:32.335Z,0
2018-01-02T01:04:32.104Z,0
2018-01-02T01:05:32.385Z,0
2018-01-02T01:06:32.117Z,0
2018-01-02T01:07:32.126Z,0
2018-01-02T01:10:32.452Z,0
2018-01-02T01:11:32.461Z,0
2018-01-02T01:12:47.148Z,0
2018-01-02T01:13:32.492Z,0
2018-01-02T01:14:32.235Z,0
2018-01-02T01:15:32.299Z,0
2018-01-02T01:16:32.271Z,0
2018-01-02T01:17:32.303Z,0
2018-01-02T01:18:32.073Z,0
2018-01-02T01:19:32.082Z,0
2018-01-02T01:20:32.358Z,0
2018-01-02T01:21:32.133Z,0
2018-01-02T01:22:32.380Z,0
2018-01-02T01:23:32.673Z,0
2018-01-02T01:24:32.396Z,0
2018-01-02T01:25:32.425Z,0
2018-01-02T01:26:32.464Z,0
2018-01-02T01:27:32.697Z,0
2018-01-02T01:29:32.496Z,0
2018-01-02T01:30:32.732Z,0
2018-01-02T01:31:32.802Z,0
2018-01-02T01:32:32.519Z,0
2018-01-02T01:33:32.318Z,0
2018-01-02T01:34:47.236Z,0
2018-01-02T01:35:32.841Z,0
2018-01-02T01:36:32.883Z,0
2018-01-02T01:37:32.921Z,0
2018-01-02T01:38:32.696Z,0
2018-01-02T01:39:32.690Z,0
2018-01-02T01:40:32.660Z,0
2018-01-02T01:41:32.702Z,0
2018-01-02T01:42:32.707Z,0
2018-01-02T01:44:32.470Z,0
2018-01-02T01:45:32.758Z,0
2018-01-02T01:46:32.742Z,0
2018-01-02T01:47:32.521Z,0
2018-01-02T01:48:33.075Z,0
2018-01-02T01:49:32.815Z,0
2018-01-02T01:50:33.089Z,0
2018-01-02T01:51:32.958Z,0
2018-01-02T01:52:32.612Z,0
2018-01-02T01:53:33.162Z,0
2018-01-02T01:54:32.892Z,0
2018-01-02T01:55:33.135Z,0
2018-01-02T01:56:33.194Z,0
2018-01-02T01:57:32.978Z,0
2018-01-02T01:58:33.220Z,0
2018-01-02T01:59:32.750Z,0
2018-01-02T02:00:32.496Z,0
2018-01-02T02:01:32.992Z,0
2018-01-02T02:02:33.034Z,0
2018-01-02T02:03:32.798Z,0
2018-01-02T02:04:47.735Z,0
2018-01-02T02:06:33.073Z,0
2018-01-02T02:07:33.325Z,0
2018-01-02T02:08:32.835Z,0
2018-01-02T02:09:33.359Z,0
2018-01-02T02:10:33.459Z,0
2018-01-02T02:11:33.150Z,0
2018-01-02T02:12:33.437Z,0
2018-01-02T02:13:33.416Z,0
2018-01-02T02:14:32.968Z,0
2018-01-02T02:15:48.148Z,0
2018-01-02T02:16:33.237Z,0
2018-01-02T02:18:33.293Z,0
2018-01-02T02:20:33.536Z,0
2018-01-02T02:21:33.059Z,0
2018-01-02T02:22:33.062Z,0
2018-01-02T02:23:33.359Z,0
2018-01-02T02:24:33.356Z,0
2018-01-02T02:25:33.637Z,0
2018-01-02T02:26:33.399Z,0
2018-01-02T02:27:48.344Z,0
2018-01-02T02:28:33.426Z,0
2018-01-02T02:29:33.430Z,0
2018-01-02T02:30:33.543Z,0
2018-01-02T02:31:48.397Z,0
2018-01-02T02:32:33.735Z,0
2018-01-02T02:33:33.741Z,0
2018-01-02T02:34:33.251Z,0
2018-01-02T02:35:33.526Z,0
2018-01-02T02:36:33.555Z,0
2018-01-02T02:38:33.586Z,0
2018-01-02T02:39:33.861Z,0
2018-01-02T02:40:48.547Z,0
2018-01-02T02:41:33.607Z,0
2018-01-02T02:42:33.902Z,0
2018-01-02T02:43:33.390Z,0
2018-01-02T02:44:33.937Z,0
2018-01-02T02:45:33.993Z,0
2018-01-02T02:46:33.726Z,0
2018-01-02T02:47:48.137Z,0
2018-01-02T02:48:33.747Z,0
2018-01-02T02:49:33.782Z,0
2018-01-02T02:50:48.705Z,0
2018-01-02T02:51:33.774Z,0
2018-01-02T02:52:34.086Z,0
2018-01-02T02:53:48.757Z,0
2018-01-02T02:54:34.075Z,0
2018-01-02T02:55:34.082Z,0
2018-01-02T02:56:33.850Z,0
2018-01-02T02:57:33.373Z,0
2018-01-02T02:58:33.895Z,0
2018-01-02T02:59:33.666Z,0
2018-01-02T03:00:34.180Z,0
2018-01-02T03:01:34.193Z,0
2018-01-02T03:02:34.216Z,0
2018-01-02T03:03:48.636Z,0
2018-01-02T03:04:34.275Z,0
2018-01-02T03:05:34.018Z,0
2018-01-02T03:06:34.294Z,0
2018-01-02T03:07:34.039Z,0
2018-01-02T03:08:34.289Z,0
2018-01-02T03:09:34.292Z,0
2018-01-02T03:11:33.829Z,0
2018-01-02T03:12:34.364Z,0
2018-01-02T03:13:48.780Z,0
2018-01-02T03:14:33.649Z,0
2018-01-02T03:15:34.386Z,0
2018-01-02T03:16:34.176Z,0
2018-01-02T03:17:34.520Z,0
2018-01-02T03:18:49.109Z,0
2018-01-02T03:19:34.201Z,0
2018-01-02T03:20:33.967Z,0
2018-01-02T03:22:34.278Z,0
2018-01-02T03:23:34.032Z,0
2018-01-02T03:24:34.328Z,0
2018-01-02T03:25:49.250Z,0
2018-01-02T03:26:34.098Z,0
2018-01-02T03:27:34.070Z,0
2018-01-02T03:29:34.633Z,0
2018-01-02T03:30:34.403Z,0
2018-01-02T03:31:34.481Z,0
2018-01-02T03:32:34.416Z,0
2018-01-02T03:33:34.704Z,0
2018-01-02T03:34:34.443Z,0
2018-01-02T03:35:34.449Z,0
2018-01-02T03:36:34.825Z,0
2018-01-02T03:37:34.740Z,0
2018-01-02T03:38:49.182Z,0
2018-01-02T03:39:34.768Z,0
2018-01-02T03:40:34.532Z,0
2018-01-02T03:41:34.790Z,0
2018-01-02T03:42:34.821Z,0
2018-01-02T03:43:34.565Z,0
2018-01-02T03:44:34.341Z,0
2018-01-02T03:45:34.920Z,0
2018-01-02T03:47:34.927Z,0
2018-01-02T03:48:34.651Z,0
2018-01-02T03:49:34.938Z,0
2018-01-02T03:50:49.623Z,0
2018-01-02T03:51:34.960Z,0
2018-01-02T03:52:35.076Z,0
2018-01-02T03:53:34.751Z,0
2018-01-02T03:54:34.979Z,0
2018-01-02T03:55:49.442Z,0
2018-01-02T03:56:35.053Z,0
2018-01-02T03:57:34.831Z,0
2018-01-02T03:59:35.094Z,0
2018-01-02T04:00:34.861Z,0
2018-01-02T04:01:34.874Z,0
2018-01-02T04:02:35.132Z,0
2018-01-02T04:03:35.144Z,0
2018-01-02T04:04:49.601Z,0
2018-01-02T04:05:35.265Z,0
2018-01-02T04:06:49.844Z,0
2018-01-02T04:07:34.704Z,0
2018-01-02T04:08:34.986Z,0
2018-01-02T04:09:34.979Z,0
2018-01-02T04:10:35.013Z,0
2018-01-02T04:11:35.268Z,0
2018-01-02T04:12:35.027Z,0
2018-01-02T04:13:34.813Z,0
2018-01-02T04:14:49.752Z,0
2018-01-02T04:15:35.079Z,0
2018-01-02T04:16:35.077Z,0
2018-01-02T04:17:35.131Z,0
2018-01-02T04:18:35.377Z,0
2018-01-02T04:19:34.885Z,0
2018-01-02T04:20:35.133Z,0
2018-01-02T04:21:50.080Z,0
2018-01-02T04:22:50.107Z,0
2018-01-02T04:23:35.442Z,0
2018-01-02T04:24:35.217Z,0
2018-01-02T04:25:49.905Z,0
2018-01-02T04:26:35.029Z,0
2018-01-02T04:27:35.515Z,0
2018-01-02T04:28:35.502Z,0
2018-01-02T04:30:35.621Z,0
2018-01-02T04:31:35.355Z,0
2018-01-02T04:32:35.356Z,0
2018-01-02T04:33:50.277Z,0
2018-01-02T04:34:35.382Z,0
2018-01-02T04:35:35.388Z,0
2018-01-02T04:36:35.640Z,0
2018-01-02T04:37:35.672Z,0
2018-01-02T04:38:50.360Z,0
2018-01-02T04:39:34.947Z,0
2018-01-02T04:40:35.714Z,0
2018-01-02T04:41:35.499Z,0
2018-01-02T04:42:35.481Z,0
2018-01-02T04:43:35.493Z,0
2018-01-02T04:44:35.758Z,0
2018-01-02T04:45:35.286Z,0
2018-01-02T04:46:35.808Z,0
2018-01-02T04:47:35.291Z,0
2018-01-02T04:48:35.588Z,0
2018-01-02T04:49:35.349Z,0
2018-01-02T04:50:35.872Z,0
2018-01-02T04:51:35.386Z,0
2018-01-02T04:52:35.663Z,0
2018-01-02T04:53:50.591Z,0
2018-01-02T04:54:35.921Z,0
2018-01-02T04:55:50.363Z,0
2018-01-02T04:56:35.441Z,0
2018-01-02T04:57:35.477Z,0
2018-01-02T04:58:35.763Z,0
2018-01-02T05:00:35.798Z,0
2018-01-02T05:01:35.798Z,0
2018-01-02T05:02:36.071Z,0
2018-01-02T05:03:36.076Z,0
2018-01-02T05:04:35.569Z,0
2018-01-02T05:05:35.856Z,0
2018-01-02T05:06:35.614Z,0
2018-01-02T05:07:50.809Z,0
2018-01-02T05:08:36.148Z,0
2018-01-02T05:09:35.891Z,0
2018-01-02T05:10:50.859Z,0
2018-01-02T05:11:36.177Z,0
2018-01-02T05:12:35.705Z,0
2018-01-02T05:13:36.228Z,0
2018-01-02T05:14:36.247Z,0
2018-01-02T05:15:35.747Z,0
2018-01-02T05:17:36.069Z,0
2018-01-02T05:18:36.287Z,0
2018-01-02T05:19:36.069Z,0
2018-01-02T05:20:36.101Z,0
2018-01-02T05:21:36.107Z,0
2018-01-02T05:22:36.346Z,0
2018-01-02T05:24:50.825Z,0
2018-01-02T05:25:51.087Z,0
2018-01-02T05:26:36.470Z,0
2018-01-02T05:27:36.169Z,0
2018-01-02T05:28:36.188Z,0
2018-01-02T05:29:36.510Z,0
2018-01-02T05:30:36.268Z,0
2018-01-02T05:31:36.003Z,0
2018-01-02T05:32:51.180Z,0
2018-01-02T05:33:36.269Z,0
2018-01-02T05:34:36.314Z,0
2018-01-02T05:35:36.317Z,0
2018-01-02T05:36:36.069Z,0
2018-01-02T05:37:36.688Z,0
2018-01-02T05:38:36.122Z,0
2018-01-02T05:39:51.300Z,0
2018-01-02T05:40:36.402Z,0
2018-01-02T05:41:51.436Z,0
2018-01-02T05:42:36.425Z,0
2018-01-02T05:43:36.437Z,0
2018-01-02T05:44:51.114Z,0
2018-01-02T05:45:36.712Z,0
2018-01-02T05:46:36.505Z,0
2018-01-02T05:47:36.505Z,0
2018-01-02T05:48:36.534Z,0
2018-01-02T05:49:51.218Z,0
2018-01-02T05:50:36.519Z,0
2018-01-02T05:51:36.288Z,0
2018-01-02T05:52:36.835Z,0
2018-01-02T05:53:36.868Z,0
2018-01-02T05:54:36.858Z,0
2018-01-02T05:55:36.626Z,0
2018-01-02T05:56:36.642Z,0
2018-01-02T05:57:51.582Z,0
2018-01-02T05:58:36.655Z,0
2018-01-02T05:59:36.433Z,0
2018-01-02T06:00:36.441Z,0
2018-01-02T06:01:36.727Z,0
2018-01-02T06:02:51.409Z,0
2018-01-02T06:03:36.758Z,0
2018-01-02T06:04:36.992Z,0
2018-01-02T06:05:36.814Z,0
2018-01-02T06:06:37.065Z,0
2018-01-02T06:07:36.789Z,0
2018-01-02T06:08:37.090Z,0
2018-01-02T06:09:37.079Z,0
2018-01-02T06:10:36.842Z,0
2018-01-02T06:11:51.570Z,0
2018-01-02T06:12:36.873Z,0
2018-01-02T06:13:51.825Z,0
2018-01-02T06:14:36.664Z,0
2018-01-02T06:15:36.933Z,0
2018-01-02T06:16:36.930Z,0
2018-01-02T06:17:37.192Z,0
2018-01-02T06:18:37.258Z,0
2018-01-02T06:19:37.227Z,0
2018-01-02T06:20:37.025Z,0
2018-01-02T06:21:37.038Z,0
2018-01-02T06:22:37.087Z,0
2018-01-02T06:23:37.054Z,0
2018-01-02T06:24:37.319Z,0
2018-01-02T06:25:37.076Z,0
2018-01-02T06:26:52.062Z,0
2018-01-02T06:27:37.415Z,0
2018-01-02T06:29:06.754Z,0
2018-01-02T06:29:37.167Z,0
2018-01-02T06:30:37.465Z,0
2018-01-02T06:31:37.462Z,0
2018-01-02T06:32:36.949Z,0
2018-01-02T06:33:37.498Z,0
2018-01-02T06:34:37.498Z,0
2018-01-02T06:35:37.102Z,0
2018-01-02T06:36:37.257Z,0
2018-01-02T06:37:37.518Z,0
2018-01-02T06:38:37.068Z,0
2018-01-02T06:39:37.339Z,0
2018-01-02T06:40:37.583Z,0
2018-01-02T06:41:37.580Z,0
2018-01-02T06:42:37.348Z,0
2018-01-02T06:43:37.639Z,0
2018-01-02T06:44:37.378Z,0
2018-01-02T06:45:37.405Z,0
2018-01-02T06:46:37.188Z,0
2018-01-02T06:47:37.447Z,4
2018-01-02T06:48:37.693Z,4
2018-01-02T06:49:52.133Z,4
2018-01-02T06:50:37.715Z,4
2018-01-02T06:51:37.772Z,0
2018-01-02T06:52:52.449Z,0
2018-01-02T06:53:37.527Z,4
2018-01-02T06:54:37.560Z,4
2018-01-02T06:55:52.506Z,4
2018-01-02T06:56:37.838Z,4
2018-01-02T06:57:37.378Z,4
2018-01-02T06:58:37.610Z,8
2018-01-02T06:59:37.906Z,8
2018-01-02T07:01:37.932Z,4
2018-01-02T07:02:52.604Z,8
2018-01-02T07:03:37.965Z,8
2018-01-02T07:04:37.447Z,8
2018-01-02T07:05:52.644Z,8
2018-01-02T07:06:37.995Z,12
2018-01-02T07:07:38.024Z,12
2018-01-02T07:08:37.753Z,12
2018-01-02T07:09:37.805Z,20
2018-01-02T07:10:38.086Z,24
2018-01-02T07:11:37.802Z,32
2018-01-02T07:12:38.103Z,36
2018-01-02T07:13:38.115Z,40
2018-01-02T07:14:37.844Z,44
2018-01-02T07:16:52.809Z,44
2018-01-02T07:17:52.843Z,52
2018-01-02T07:18:38.204Z,56
2018-01-02T07:19:52.880Z,60
2018-01-02T07:20:38.315Z,56
2018-01-02T07:21:38.234Z,64
2018-01-02T07:22:37.998Z,68
2018-01-02T07:23:38.235Z,72
2018-01-02T07:24:38.005Z,76
2018-01-02T07:25:38.284Z,76
2018-01-02T07:26:52.966Z,96
2018-01-02T07:27:38.323Z,116
2018-01-02T07:29:53.026Z,148
2018-01-02T07:30:38.380Z,156
2018-01-02T07:31:38.370Z,172
2018-01-02T07:32:52.825Z,208
2018-01-02T07:33:38.412Z,220
2018-01-02T07:34:38.413Z,232
2018-01-02T07:35:53.154Z,232
2018-01-02T07:36:52.860Z,220
2018-01-02T07:37:38.486Z,208
2018-01-02T07:38:38.263Z,184
2018-01-02T07:39:38.487Z,180
2018-01-02T07:40:38.293Z,180
2018-01-02T07:41:38.532Z,188
2018-01-02T07:42:38.302Z,184
2018-01-02T07:43:38.568Z,192
2018-01-02T07:44:38.076Z,212
2018-01-02T07:45:38.354Z,260
2018-01-02T07:46:38.590Z,332
2018-01-02T07:47:38.406Z,388
2018-01-02T07:48:53.330Z,440
2018-01-02T07:49:38.407Z,452
2018-01-02T07:50:38.666Z,444
2018-01-02T07:51:38.696Z,452
2018-01-02T07:52:38.694Z,448
2018-01-02T07:53:38.723Z,464
2018-01-02T07:54:38.514Z,508
2018-01-02T07:56:53.452Z,528
2018-01-02T07:57:53.484Z,516
2018-01-02T07:59:53.472Z,392
2018-01-02T08:00:38.835Z,372
2018-01-02T08:03:53.537Z,400
2018-01-02T08:04:38.919Z,432
2018-01-02T08:05:38.652Z,488
2018-01-02T08:07:38.924Z,692
2018-01-02T08:08:38.697Z,792
2018-01-02T08:09:38.722Z,920
2018-01-02T08:11:39.047Z,1304
2018-01-02T08:12:38.989Z,1460
2018-01-02T08:13:39.048Z,1576
2018-01-02T08:14:38.846Z,1520
2018-01-02T08:15:39.059Z,1548
2018-01-02T08:16:53.248Z,1480
2018-01-02T08:17:39.096Z,1360
2018-01-02T08:18:38.872Z,1148
2018-01-02T08:19:39.120Z,1084
2018-01-02T08:20:38.884Z,1024
2018-01-02T08:21:38.637Z,1000
2018-01-02T08:22:53.845Z,1184
2018-01-02T08:23:38.932Z,1284
2018-01-02T08:24:39.225Z,1300
2018-01-02T08:25:39.243Z,1404
2018-01-02T08:26:39.247Z,1384
2018-01-02T08:27:38.737Z,1496
2018-01-02T08:28:39.252Z,1536
2018-01-02T08:29:39.283Z,1648
2018-01-02T08:30:38.802Z,1636
2018-01-02T08:31:38.804Z,1596
2018-01-02T08:32:39.325Z,1640
2018-01-02T08:33:39.082Z,2028
2018-01-02T08:34:39.354Z,2284
2018-01-02T08:36:39.131Z,2412
2018-01-02T08:37:38.903Z,1948
2018-01-02T08:38:39.174Z,1676
2018-01-02T08:39:39.215Z,1504
2018-01-02T08:40:39.209Z,1444
2018-01-02T08:41:54.154Z,1404
2018-01-02T08:43:39.269Z,1432
2018-01-02T08:44:39.261Z,1452
2018-01-02T08:45:39.505Z,1436
2018-01-02T08:46:39.326Z,1344
2018-01-02T08:47:54.229Z,1580
2018-01-02T08:49:39.320Z,1664
2018-01-02T08:50:39.386Z,1692
2018-01-02T08:51:54.303Z,1604
2018-01-02T08:52:39.683Z,1444
2018-01-02T08:53:39.646Z,1328
2018-01-02T08:54:39.425Z,1136
2018-01-02T08:55:39.693Z,988
2018-01-02T08:56:39.711Z,888
2018-01-02T08:57:39.805Z,888
2018-01-02T08:58:39.738Z,872
2018-01-02T08:59:39.764Z,956
2018-01-02T09:00:54.423Z,936
2018-01-02T09:01:39.282Z,968
2018-01-02T09:02:39.773Z,1032
2018-01-02T09:03:39.815Z,1168
2018-01-02T09:04:39.550Z,1296
2018-01-02T09:05:39.869Z,1224
2018-01-02T09:09:39.669Z,976
2018-01-02T09:10:54.581Z,1012
2018-01-02T09:11:39.945Z,1196
2018-01-02T09:12:39.961Z,1308
2018-01-02T09:13:54.649Z,1564
2018-01-02T09:15:39.758Z,1828
2018-01-02T09:16:39.754Z,2184
2018-01-02T09:17:54.735Z,1980
2018-01-02T09:18:40.083Z,1840
2018-01-02T09:20:39.842Z,1820
2018-01-02T09:21:54.761Z,2056
2018-01-02T09:22:40.215Z,1956
2018-01-02T09:24:40.163Z,2008
2018-01-02T09:25:40.212Z,2016
2018-01-02T09:26:40.151Z,2140
2018-01-02T09:27:39.711Z,1872
2018-01-02T09:28:40.212Z,2012
2018-01-02T09:29:39.996Z,1836
2018-01-02T09:30:40.250Z,1608
2018-01-02T09:31:40.265Z,1364
2018-01-02T09:32:40.301Z,1200
2018-01-02T09:33:40.283Z,1216
2018-01-02T09:34:40.054Z,1100
2018-01-02T09:35:54.980Z,972
2018-01-02T09:36:40.329Z,1016
2018-01-02T09:37:40.107Z,1212
2018-01-02T09:38:55.055Z,1256
2018-01-02T09:39:40.154Z,1280
2018-01-02T09:40:40.408Z,1268
2018-01-02T09:41:55.081Z,1356
2018-01-02T09:42:40.414Z,1320
2018-01-02T09:44:40.221Z,1128
2018-01-02T09:45:40.269Z,1148
2018-01-02T09:46:40.503Z,1252
2018-01-02T09:47:40.250Z,1308
2018-01-02T09:48:40.560Z,1272
2018-01-02T09:49:55.203Z,1104
2018-01-02T09:50:40.584Z,948
2018-01-02T09:51:54.739Z,908
2018-01-02T09:52:40.356Z,956
2018-01-02T09:53:40.093Z,1180
2018-01-02T09:54:55.306Z,1388
2018-01-02T09:55:40.647Z,1516
2018-01-02T09:56:40.737Z,1676
2018-01-02T09:57:40.174Z,1580
2018-01-02T09:58:55.350Z,1616
2018-01-02T09:59:40.466Z,1808
2018-01-02T10:00:40.462Z,1856
2018-01-02T10:01:40.764Z,2080
2018-01-02T10:02:40.763Z,2116
2018-01-02T10:03:40.524Z,1788
2018-01-02T10:04:40.776Z,1608
2018-01-02T10:05:40.571Z,1860
2018-01-02T10:06:40.816Z,2184
2018-01-02T10:07:40.824Z,1908
2018-01-02T10:08:40.855Z,1960
2018-01-02T10:09:40.618Z,2300
2018-01-02T10:10:55.574Z,3056
2018-01-02T10:11:55.314Z,2680
2018-01-02T10:12:40.920Z,2460
2018-01-02T10:13:40.943Z,2260
2018-01-02T10:14:40.949Z,1976
2018-01-02T10:15:40.951Z,1672
2018-01-02T10:16:40.730Z,1524
2018-01-02T10:17:41.029Z,1720
2018-01-02T10:18:55.449Z,1780
2018-01-02T10:19:40.530Z,1916
2018-01-02T10:20:55.757Z,1936
2018-01-02T10:21:40.832Z,2292
2018-01-02T10:22:40.845Z,2888
2018-01-02T10:23:40.847Z,2780
2018-01-02T10:24:41.105Z,3152
2018-01-02T10:25:41.147Z,2892
2018-01-02T10:26:55.829Z,2616
2018-01-02T10:28:41.182Z,2560
2018-01-02T10:29:40.932Z,2704
2018-01-02T10:30:41.244Z,2416
2018-01-02T10:31:41.269Z,2208
2018-01-02T10:32:55.675Z,1968
2018-01-02T10:33:41.301Z,1852
2018-01-02T10:34:41.324Z,1836
2018-01-02T10:35:41.411Z,1804
2018-01-02T10:36:41.293Z,1488
2018-01-02T10:37:41.341Z,1296
2018-01-02T10:38:41.353Z,1352
2018-01-02T10:39:41.111Z,1260
2018-01-02T10:40:41.156Z,1196
2018-01-02T10:41:41.453Z,1376
2018-01-02T10:42:55.828Z,1788
2018-01-02T10:43:41.445Z,1992
2018-01-02T10:44:41.448Z,1960
2018-01-02T10:45:41.454Z,1988
2018-01-02T10:46:41.264Z,1868
2018-01-02T10:47:41.576Z,2076
2018-01-02T10:48:41.549Z,2296
2018-01-02T10:49:41.277Z,2440
2018-01-02T10:50:41.290Z,2604
2018-01-02T10:51:41.549Z,3012
2018-01-02T10:52:41.590Z,2836
2018-01-02T10:53:41.598Z,2904
2018-01-02T10:54:41.398Z,2272
2018-01-02T10:55:41.659Z,2152
2018-01-02T10:56:41.667Z,1896
2018-01-02T10:57:41.439Z,1796
2018-01-02T10:59:41.687Z,1664
2018-01-02T11:00:41.214Z,1620
2018-01-02T11:01:41.748Z,1660
2018-01-02T11:02:41.508Z,1676
2018-01-02T11:03:41.512Z,1468
2018-01-02T11:04:41.776Z,1352
2018-01-02T11:05:41.834Z,1152
2018-01-02T11:06:41.825Z,1176
2018-01-02T11:07:41.859Z,1192
2018-01-02T11:09:41.873Z,1440
2018-01-02T11:10:41.924Z,1304
2018-01-02T11:11:41.915Z,1208
2018-01-02T11:12:41.958Z,1268
2018-01-02T11:13:56.606Z,1188
2018-01-02T11:14:41.747Z,1416
2018-01-02T11:15:41.966Z,1384
2018-01-02T11:16:41.986Z,1852
2018-01-02T11:17:41.758Z,1772
2018-01-02T11:18:42.033Z,1920
2018-01-02T11:19:41.793Z,1788
2018-01-02T11:20:42.042Z,1876
2018-01-02T11:21:42.064Z,1724
2018-01-02T11:22:56.506Z,1520
2018-01-02T11:23:41.895Z,1424
2018-01-02T11:24:41.879Z,1260
2018-01-02T11:25:42.187Z,1168
2018-01-02T11:26:42.176Z,1152
2018-01-02T11:27:42.178Z,1248
2018-01-02T11:28:41.953Z,1392
2018-01-02T11:29:42.219Z,1316
2018-01-02T11:30:41.953Z,1200
2018-01-02T11:31:56.910Z,1360
2018-01-02T11:32:41.980Z,1520
2018-01-02T11:33:42.307Z,1476
2018-01-02T11:34:42.031Z,1452
2018-01-02T11:35:42.292Z,1184
2018-01-02T11:36:42.088Z,996
2018-01-02T11:37:42.343Z,1060
2018-01-02T11:38:42.122Z,1084
2018-01-02T11:39:41.860Z,1016
2018-01-02T11:40:42.478Z,948
2018-01-02T11:41:42.399Z,940
2018-01-02T11:42:42.458Z,1008
2018-01-02T11:43:42.441Z,1076
2018-01-02T11:44:42.530Z,1048
2018-01-02T11:45:57.131Z,1184
2018-01-02T11:46:42.524Z,1168
2018-01-02T11:47:42.513Z,1072
2018-01-02T11:48:42.506Z,1032
2018-01-02T11:49:42.570Z,1008
2018-01-02T11:50:42.300Z,972
2018-01-02T11:51:42.612Z,1072
2018-01-02T11:52:42.572Z,1216
2018-01-02T11:53:42.362Z,1044
2018-01-02T11:54:42.616Z,1020
2018-01-02T11:55:42.398Z,1164
2018-01-02T11:56:42.525Z,1264
2018-01-02T11:57:42.420Z,1172
2018-01-02T11:58:42.447Z,1320
2018-01-02T11:59:42.440Z,1456
2018-01-02T12:01:57.401Z,1384
2018-01-02T12:02:42.756Z,1260
2018-01-02T12:03:42.764Z,1220
2018-01-02T12:04:42.552Z,1592
2018-01-02T12:05:42.579Z,1896
2018-01-02T12:06:42.805Z,2024
2018-01-02T12:07:42.961Z,1556
2018-01-02T12:08:42.363Z,1380
2018-01-02T12:09:42.871Z,1220
2018-01-02T12:10:42.931Z,1200
2018-01-02T12:11:43.064Z,1392
2018-01-02T12:12:42.979Z,1796
2018-01-02T12:13:42.715Z,1980
2018-01-02T12:14:42.923Z,1792
2018-01-02T12:15:42.726Z,1760
2018-01-02T12:16:42.753Z,1536
2018-01-02T12:17:57.433Z,1500
2018-01-02T12:18:43.049Z,1328
2018-01-02T12:19:43.038Z,1220
2018-01-02T12:20:42.551Z,1076
2018-01-02T12:21:43.118Z,1152
2018-01-02T12:22:43.099Z,1032
2018-01-02T12:23:57.795Z,1332
2018-01-02T12:24:42.893Z,1212
2018-01-02T12:25:42.904Z,1236
2018-01-02T12:26:43.157Z,1404
2018-01-02T12:27:42.685Z,1436
2018-01-02T12:28:43.254Z,1296
2018-01-02T12:29:43.211Z,1376
2018-01-02T12:31:42.987Z,1420
2018-01-02T12:32:43.030Z,1580
2018-01-02T12:33:57.988Z,1400
2018-01-02T12:34:43.059Z,1304
2018-01-02T12:35:43.327Z,1252
2018-01-02T12:36:43.066Z,1160
2018-01-02T12:37:43.106Z,984
2018-01-02T12:38:43.146Z,852
2018-01-02T12:39:43.401Z,856
2018-01-02T12:40:43.426Z,848
2018-01-02T12:41:43.453Z,856
2018-01-02T12:42:43.197Z,856
2018-01-02T12:44:43.507Z,944
2018-01-02T12:45:58.189Z,1008
2018-01-02T12:46:43.537Z,1040
2018-01-02T12:47:43.287Z,1412
2018-01-02T12:48:57.986Z,1568
2018-01-02T12:49:43.560Z,1596
2018-01-02T12:50:58.278Z,1440
2018-01-02T12:52:43.608Z,1852
2018-01-02T12:53:58.288Z,1604
2018-01-02T12:54:43.668Z,1504
2018-01-02T12:55:43.666Z,1636
2018-01-02T12:56:43.738Z,1664
2018-01-02T12:57:43.689Z,1356
2018-01-02T12:58:43.762Z,1268
2018-01-02T12:59:43.467Z,1128
2018-01-02T13:00:58.446Z,1224
2018-01-02T13:01:43.780Z,1092
2018-01-02T13:02:43.783Z,1064
2018-01-02T13:03:43.813Z,1072
2018-01-02T13:04:43.821Z,884
2018-01-02T13:05:43.823Z,788
2018-01-02T13:06:43.840Z,756
2018-01-02T13:07:43.853Z,708
2018-01-02T13:08:43.898Z,760
2018-01-02T13:09:43.903Z,744
2018-01-02T13:10:43.906Z,656
2018-01-02T13:11:43.784Z,540
2018-01-02T13:12:43.716Z,480
2018-01-02T13:13:58.626Z,592
2018-01-02T13:14:43.985Z,596
2018-01-02T13:15:43.994Z,508
2018-01-02T13:16:44.015Z,520
2018-01-02T13:17:44.064Z,540
2018-01-02T13:18:44.081Z,460
2018-01-02T13:19:44.049Z,420
2018-01-02T13:20:58.765Z,388
2018-01-02T13:21:43.879Z,356
2018-01-02T13:22:58.785Z,308
2018-01-02T13:23:44.169Z,316
2018-01-02T13:24:58.835Z,340
2018-01-02T13:25:43.926Z,416
2018-01-02T13:26:44.224Z,420
2018-01-02T13:27:43.954Z,356
2018-01-02T13:28:58.649Z,328
2018-01-02T13:29:44.267Z,312
2018-01-02T13:30:44.285Z,296
2018-01-02T13:31:44.296Z,288
2018-01-02T13:32:58.704Z,268
2018-01-02T13:33:44.292Z,268
2018-01-02T13:34:44.330Z,264
2018-01-02T13:35:44.381Z,220
2018-01-02T13:36:59.065Z,240
2018-01-02T13:37:44.412Z,300
2018-01-02T13:38:44.434Z,396
2018-01-02T13:39:44.415Z,344
2018-01-02T13:40:44.427Z,336
2018-01-02T13:41:59.115Z,360
2018-01-02T13:42:59.264Z,364
2018-01-02T13:43:44.500Z,324
2018-01-02T13:44:44.480Z,284
2018-01-02T13:45:44.342Z,280
2018-01-02T13:46:44.536Z,320
2018-01-02T13:47:44.316Z,384
2018-01-02T13:48:44.650Z,492
2018-01-02T13:49:44.623Z,520
2018-01-02T13:50:59.019Z,492
2018-01-02T13:51:59.293Z,432
2018-01-02T13:53:44.655Z,452
2018-01-02T13:54:44.672Z,496
2018-01-02T13:55:44.440Z,460
2018-01-02T13:56:44.720Z,440
2018-01-02T13:57:44.735Z,408
2018-01-02T13:59:44.755Z,488
2018-01-02T14:00:59.221Z,484
2018-01-02T14:01:44.774Z,488
2018-01-02T14:03:44.298Z,548
2018-01-02T14:04:44.842Z,492
2018-01-02T14:05:59.302Z,692
2018-01-02T14:06:44.878Z,752
2018-01-02T14:07:44.891Z,760
2018-01-02T14:08:59.601Z,792
2018-01-02T14:09:44.943Z,800
2018-01-02T14:10:59.616Z,804
2018-01-02T14:11:45.028Z,768
2018-01-02T14:12:45.011Z,652
2018-01-02T14:13:44.726Z,604
2018-01-02T14:14:59.743Z,536
2018-01-02T14:15:44.777Z,416
2018-01-02T14:16:45.044Z,384
2018-01-02T14:17:44.825Z,424
2018-01-02T14:18:45.108Z,432
2018-01-02T14:19:45.118Z,376
2018-01-02T14:20:45.120Z,384
2018-01-02T14:21:59.882Z,296
2018-01-02T14:22:44.901Z,284
2018-01-02T14:23:59.852Z,268
2018-01-02T14:24:44.943Z,256
2018-01-02T14:25:59.889Z,196
2018-01-02T14:26:59.896Z,224
2018-01-02T14:27:59.645Z,376
2018-01-02T14:28:45.031Z,432
2018-01-02T14:29:59.929Z,444
2018-01-02T14:30:59.959Z,464
2018-01-02T14:31:45.072Z,464
2018-01-02T14:32:59.740Z,404
2018-01-02T14:33:45.330Z,364
2018-01-02T14:34:45.380Z,324
2018-01-02T14:35:45.125Z,316
2018-01-02T14:36:45.424Z,324
2018-01-02T14:38:00.115Z,244
2018-01-02T14:39:00.113Z,172
2018-01-02T14:39:45.172Z,128
2018-01-02T14:40:45.559Z,88
2018-01-02T14:41:45.475Z,88
2018-01-02T14:42:45.532Z,92
2018-01-02T14:43:45.529Z,80
2018-01-02T14:44:45.506Z,72
2018-01-02T14:45:45.534Z,60
2018-01-02T14:47:00.236Z,60
2018-01-02T14:47:45.581Z,56
2018-01-02T14:48:45.608Z,60
2018-01-02T14:49:45.125Z,64
2018-01-02T14:50:45.626Z,76
2018-01-02T14:51:45.378Z,104
2018-01-02T14:52:45.664Z,64
2018-01-02T14:53:45.668Z,56
2018-01-02T14:54:45.183Z,64
2018-01-02T14:56:00.386Z,56